createdAt,value
2022-11-23T00:01:56.998Z,98991.56
2022-11-23T00:05:05.889Z,98985.75
2022-11-23T00:08:13.887Z,98988.66
2022-11-23T00:11:25.196Z,98982.03
2022-11-23T00:14:33.910Z,98981.50
2022-11-23T00:17:42.487Z,98981.78
2022-11-23T00:20:51.903Z,98975.91
2022-11-23T00:24:07.193Z,98987.34
2022-11-23T00:27:21.888Z,98972.00
2022-11-23T00:30:23.836Z,98967.75
2022-11-23T00:33:38.910Z,98974.38
2022-11-23T00:36:46.869Z,98972.03
2022-11-23T00:40:01.885Z,98973.88
2022-11-23T00:43:16.942Z,98987.94
2022-11-23T00:46:27.757Z,98979.72
2022-11-23T00:49:49.871Z,98980.22
2022-11-23T00:53:00.315Z,98963.50
2022-11-23T00:56:15.885Z,98968.81
2022-11-23T00:59:17.712Z,98974.13
2022-11-23T01:02:32.881Z,98972.00
2022-11-23T01:05:43.892Z,98967.78
2022-11-23T01:08:55.033Z,98962.44
2022-11-23T01:12:09.880Z,98974.91
2022-11-23T01:15:24.879Z,98963.50
2022-11-23T01:18:26.732Z,98965.37
2022-11-23T01:21:42.888Z,98955.28
2022-11-23T01:24:57.878Z,98952.62
2022-11-23T01:28:06.545Z,98954.72
2022-11-23T01:31:17.910Z,98949.72
2022-11-23T01:34:32.898Z,98955.28
2022-11-23T01:37:47.869Z,98956.09
2022-11-23T01:40:49.804Z,98965.88
2022-11-23T01:44:04.895Z,98963.47
2022-11-23T01:47:19.859Z,98958.97
2022-11-23T01:50:34.896Z,98960.81
2022-11-23T01:53:43.960Z,98959.22
2022-11-23T01:57:06.919Z,98947.56
2022-11-23T02:00:15.882Z,98946.75
2022-11-23T02:03:30.880Z,98951.81
2022-11-23T02:06:40.135Z,98951.00
2022-11-23T02:09:48.891Z,98941.22
2022-11-23T02:13:08.877Z,98939.38
2022-11-23T02:16:18.801Z,98949.19
2022-11-23T02:19:44.878Z,98944.94
2022-11-23T02:23:21.877Z,98954.50
2022-11-23T02:26:35.877Z,98964.59
2022-11-23T02:29:50.888Z,98953.19
2022-11-23T02:32:59.534Z,98951.34
2022-11-23T02:36:07.942Z,98941.53
2022-11-23T02:39:37.271Z,98935.47
2022-11-23T02:42:52.852Z,98936.97
2022-11-23T02:46:03.939Z,98951.63
2022-11-23T02:49:18.835Z,98940.72
2022-11-23T02:52:33.870Z,98944.44
2022-11-23T02:55:41.885Z,98947.16
2022-11-23T02:58:50.445Z,98942.63
2022-11-23T03:02:05.891Z,98944.75
2022-11-23T03:05:14.486Z,98950.06
2022-11-23T03:08:22.861Z,98938.16
2022-11-23T03:11:31.804Z,98951.41
2022-11-23T03:14:39.839Z,98939.75
2022-11-23T03:17:48.383Z,98961.00
2022-11-23T03:20:56.839Z,98945.59
2022-11-23T03:24:05.741Z,98955.69
2022-11-23T03:27:27.857Z,98945.62
2022-11-23T03:30:42.895Z,98940.28
2022-11-23T03:33:44.737Z,98939.78
2022-11-23T03:36:59.870Z,98937.62
2022-11-23T03:40:09.335Z,98936.06
2022-11-23T03:47:08.903Z,98942.97
2022-11-23T03:50:25.973Z,98939.25
2022-11-23T03:53:34.465Z,98935.00
2022-11-23T03:56:42.924Z,98933.47
2022-11-23T03:59:57.894Z,98932.44
2022-11-23T04:03:13.917Z,98929.81
2022-11-23T04:06:15.871Z,98936.69
2022-11-23T04:09:31.169Z,98941.47
2022-11-23T04:12:45.964Z,98940.94
2022-11-23T04:16:00.905Z,98932.44
2022-11-23T04:19:15.927Z,98929.00
2022-11-23T04:22:18.156Z,98935.13
2022-11-23T04:25:32.920Z,98945.72
2022-11-23T04:28:54.940Z,98956.53
2022-11-23T04:32:03.696Z,98947.53
2022-11-23T04:35:11.911Z,98945.72
2022-11-23T04:38:26.885Z,98943.06
2022-11-23T04:41:28.841Z,98944.94
2022-11-23T04:44:43.888Z,98946.25
2022-11-23T04:47:45.799Z,98942.56
2022-11-23T04:51:01.900Z,98947.06
2022-11-23T04:54:10.467Z,98947.84
2022-11-23T04:57:18.890Z,98941.50
2022-11-23T05:00:27.968Z,98946.81
2022-11-23T05:03:36.985Z,98946.00
2022-11-23T05:06:46.293Z,98944.69
2022-11-23T05:10:00.899Z,98945.47
2022-11-23T05:13:09.482Z,98957.41
2022-11-23T05:16:23.911Z,98950.53
2022-11-23T05:19:25.723Z,98939.94
2022-11-23T05:22:40.884Z,98932.28
2022-11-23T05:25:42.852Z,98920.34
2022-11-23T05:29:04.896Z,98920.59
2022-11-23T05:32:13.925Z,98919.78
2022-11-23T05:35:22.540Z,98919.28
2022-11-23T05:38:36.905Z,98921.94
2022-11-23T05:41:44.928Z,98919.28
2022-11-23T05:44:53.517Z,98919.28
2022-11-23T05:48:07.896Z,98911.84
2022-11-23T05:51:16.478Z,98920.06
2022-11-23T05:54:25.903Z,98921.66
2022-11-23T05:57:34.466Z,98921.09
2022-11-23T06:00:48.939Z,98924.81
2022-11-23T06:03:51.528Z,98935.66
2022-11-23T06:07:07.978Z,98951.81
2022-11-23T06:10:11.626Z,98940.38
2022-11-23T06:13:26.893Z,98941.22
2022-11-23T06:16:35.570Z,98952.56
2022-11-23T06:19:43.899Z,98947.75
2022-11-23T06:23:02.877Z,98943.81
2022-11-23T06:26:11.469Z,98954.16
2022-11-23T06:29:27.881Z,98954.19
2022-11-23T06:32:42.900Z,98968.22
2022-11-23T06:35:53.758Z,98960.81
2022-11-23T06:39:08.906Z,98961.12
2022-11-23T06:42:38.342Z,98956.53
2022-11-23T06:45:48.471Z,98962.94
2022-11-23T06:48:56.876Z,98957.63
2022-11-23T06:52:11.888Z,98964.50
2022-11-23T06:55:13.861Z,98957.87
2022-11-23T06:58:28.896Z,98954.72
2022-11-23T07:01:37.719Z,98968.50
2022-11-23T07:04:45.887Z,98979.63
2022-11-23T07:08:00.888Z,98974.84
2022-11-23T07:11:17.913Z,98978.75
2022-11-23T07:14:19.845Z,98982.00
2022-11-23T07:17:35.518Z,98981.34
2022-11-23T07:20:37.775Z,98982.31
2022-11-23T07:23:55.053Z,98981.84
2022-11-23T07:27:10.679Z,98979.81
2022-11-23T07:30:29.317Z,98976.47
2022-11-23T07:33:31.600Z,98979.72
2022-11-23T07:36:46.910Z,98974.38
2022-11-23T07:40:02.177Z,98979.66
2022-11-23T07:43:16.898Z,98981.25
2022-11-23T07:46:25.871Z,98979.72
2022-11-23T07:49:34.771Z,98987.37
2022-11-23T07:52:44.889Z,98987.13
2022-11-23T07:56:05.958Z,98983.88
2022-11-23T07:59:14.672Z,98986.75
2022-11-23T08:02:23.010Z,98986.78
2022-11-23T08:05:32.871Z,98987.59
2022-11-23T08:08:41.896Z,98995.22
2022-11-23T08:11:50.543Z,98996.25
2022-11-23T08:15:05.956Z,98998.91
2022-11-23T08:18:20.927Z,99000.22
2022-11-23T08:21:35.894Z,99003.88
2022-11-23T08:24:37.738Z,98995.91
2022-11-23T08:28:07.929Z,98998.25
2022-11-23T08:31:17.386Z,99007.03
2022-11-23T08:34:31.979Z,99001.75
2022-11-23T08:37:46.893Z,98997.69
2022-11-23T08:40:55.879Z,99001.09
2022-11-23T08:44:05.724Z,99000.53
2022-11-23T08:47:14.886Z,99004.81
2022-11-23T08:50:29.878Z,98999.69
2022-11-23T08:53:44.888Z,99003.44
2022-11-23T08:56:52.894Z,99013.47
2022-11-23T09:00:01.667Z,99010.81
2022-11-23T09:03:16.876Z,99019.31
2022-11-23T09:06:31.896Z,99014.78
2022-11-23T09:09:46.888Z,99013.44
2022-11-23T09:12:56.257Z,99018.78
2022-11-23T09:16:05.623Z,99019.34
2022-11-23T09:19:13.869Z,99006.62
2022-11-23T09:22:28.874Z,99018.78
2022-11-23T09:25:44.203Z,99023.06
2022-11-23T09:28:58.948Z,99018.53
2022-11-23T09:32:09.854Z,99005.72
2022-11-23T09:35:24.883Z,99014.69
2022-11-23T09:38:55.156Z,99014.19
2022-11-23T09:42:17.840Z,99023.50
2022-11-23T09:45:40.883Z,99029.59
2022-11-23T09:48:49.104Z,99016.03
2022-11-23T09:52:03.888Z,99004.97
2022-11-23T09:55:24.863Z,99014.97
2022-11-23T09:58:46.929Z,99017.06
2022-11-23T10:01:54.962Z,99016.50
2022-11-23T10:05:04.867Z,99015.69
2022-11-23T10:08:47.894Z,99018.87
2022-11-23T10:12:40.289Z,99014.88
2022-11-23T10:16:25.964Z,99017.50
2022-11-23T10:20:12.325Z,99010.34
2022-11-23T10:23:38.089Z,99010.34
2022-11-23T10:26:53.146Z,99001.81
2022-11-23T10:30:07.856Z,99004.75
2022-11-23T10:33:53.124Z,99005.19
2022-11-23T10:37:07.882Z,99007.84
2022-11-23T10:40:25.860Z,99008.88
2022-11-23T10:43:40.855Z,99016.06
2022-11-23T10:46:49.487Z,99014.19
2022-11-23T10:50:04.878Z,99011.88
2022-11-23T10:53:29.882Z,99013.13
2022-11-23T10:56:46.882Z,99013.06
2022-11-23T11:00:09.914Z,99003.50
2022-11-23T11:03:24.993Z,99005.09
2022-11-23T11:06:36.920Z,99004.09
2022-11-23T11:09:54.711Z,99006.47
2022-11-23T11:13:10.901Z,99003.16
2022-11-23T11:16:37.220Z,98998.66
2022-11-23T11:19:52.963Z,98999.94
2022-11-23T11:23:22.909Z,98997.00
2022-11-23T11:26:49.791Z,98991.41
2022-11-23T11:30:13.914Z,98990.28
2022-11-23T11:33:22.813Z,98998.50
2022-11-23T11:36:45.879Z,98996.88
2022-11-23T11:40:02.454Z,98997.03
2022-11-23T11:43:39.621Z,98996.28
2022-11-23T11:47:02.894Z,99005.53
2022-11-23T11:50:32.061Z,99003.69
2022-11-23T11:54:24.891Z,99002.87
2022-11-23T11:57:48.866Z,98992.75
2022-11-23T12:01:20.308Z,99004.44
2022-11-23T12:04:49.862Z,98995.09
2022-11-23T12:08:16.415Z,98994.81
2022-11-23T12:11:30.869Z,99001.97
2022-11-23T12:14:38.856Z,98996.47
2022-11-23T12:18:19.571Z,99008.59
2022-11-23T12:21:56.961Z,98993.44
2022-11-23T12:25:14.225Z,98991.78
2022-11-23T12:28:56.879Z,98993.38
2022-11-23T12:32:27.021Z,98995.59
2022-11-23T12:36:16.710Z,98991.59
2022-11-23T12:39:58.848Z,98990.72
2022-11-23T12:43:26.624Z,98988.28
2022-11-23T12:46:50.885Z,98978.44
2022-11-23T12:50:21.833Z,98983.59
2022-11-23T12:54:02.130Z,98990.28
2022-11-23T12:57:15.092Z,98991.00
2022-11-23T13:00:35.913Z,98987.47
2022-11-23T13:04:15.985Z,98984.53
2022-11-23T13:07:37.295Z,98986.97
2022-11-23T13:11:01.922Z,98985.25
2022-11-23T13:14:39.976Z,98996.38
2022-11-23T13:18:15.842Z,99009.13
2022-11-23T13:21:45.909Z,99001.13
2022-11-23T13:25:26.822Z,99011.97
2022-11-23T13:28:41.871Z,99006.53
2022-11-23T13:32:34.899Z,99013.44
2022-11-23T13:35:43.462Z,99014.50
2022-11-23T13:38:51.848Z,99018.56
2022-11-23T13:42:07.898Z,99016.28
2022-11-23T13:45:25.557Z,99014.19
2022-11-23T13:48:55.533Z,99018.81
2022-11-23T13:52:06.511Z,99024.94
2022-11-23T13:55:21.861Z,99016.16
2022-11-23T13:58:23.832Z,99017.72
2022-11-23T14:02:04.887Z,99016.16
2022-11-23T14:05:56.926Z,99018.50
2022-11-23T14:09:29.922Z,99015.06
2022-11-23T14:12:54.395Z,99022.47
2022-11-23T14:16:11.904Z,99022.88
2022-11-23T14:19:41.860Z,99026.34
2022-11-23T14:22:53.506Z,99027.13
2022-11-23T14:26:41.872Z,99026.34
2022-11-23T14:30:32.642Z,99034.25
2022-11-23T14:34:00.878Z,99026.84
2022-11-23T14:37:44.348Z,99033.75
2022-11-23T14:41:29.833Z,99033.25
2022-11-23T14:44:47.844Z,99035.38
2022-11-23T14:47:56.561Z,99030.06
2022-11-23T14:51:08.894Z,99034.38
2022-11-23T14:54:17.648Z,99040.69
2022-11-23T14:57:31.822Z,99035.69
2022-11-23T15:00:49.863Z,99046.00
2022-11-23T15:04:06.943Z,99047.59
2022-11-23T15:07:32.371Z,99050.22
2022-11-23T15:11:19.856Z,99058.97
2022-11-23T15:14:33.329Z,99052.38
2022-11-23T15:17:51.565Z,99058.28
2022-11-23T15:21:00.853Z,99063.06
2022-11-23T15:24:21.373Z,99062.81
2022-11-23T15:27:36.839Z,99066.00
2022-11-23T15:30:45.717Z,99066.00
2022-11-23T15:34:01.876Z,99071.59
2022-11-23T15:37:17.882Z,99073.75
2022-11-23T15:40:31.065Z,99062.03
2022-11-23T15:43:58.915Z,99055.13
2022-11-23T15:47:04.554Z,99056.22
2022-11-23T15:50:20.861Z,99063.66
2022-11-23T15:53:50.532Z,99065.25
2022-11-23T15:57:06.869Z,99067.41
2022-11-23T16:00:27.891Z,99064.47
2022-11-23T16:04:03.846Z,99068.22
2022-11-23T16:07:31.908Z,99076.97
2022-11-23T16:10:41.157Z,99073.78
2022-11-23T16:13:58.486Z,99077.75
2022-11-23T16:17:14.918Z,99083.88
2022-11-23T16:20:32.115Z,99084.38
2022-11-23T16:23:49.695Z,99087.81
2022-11-23T16:27:04.895Z,99084.94
2022-11-23T16:30:22.385Z,99099.25
2022-11-23T16:33:36.976Z,99098.16
2022-11-23T16:36:46.214Z,99101.16
2022-11-23T16:40:01.240Z,99107.00
2022-11-23T16:43:03.593Z,99108.28
2022-11-23T16:46:18.920Z,99113.59
2022-11-23T16:49:27.454Z,99108.84
2022-11-23T16:52:41.837Z,99110.44
2022-11-23T16:55:53.823Z,99113.09
2022-11-23T16:59:09.183Z,99107.28
2022-11-23T17:02:23.370Z,99109.37
2022-11-23T17:05:38.246Z,99111.75
2022-11-23T17:08:47.254Z,99118.63
2022-11-23T17:11:55.877Z,99109.66
2022-11-23T17:15:06.183Z,99116.06
2022-11-23T17:18:15.309Z,99114.75
2022-11-23T17:21:30.259Z,99112.66
2022-11-23T17:24:32.713Z,99113.94
2022-11-23T17:27:55.390Z,99110.28
2022-11-23T17:31:10.177Z,99122.22
2022-11-23T17:34:23.256Z,99121.19
2022-11-23T17:37:31.819Z,99126.50
2022-11-23T17:40:47.296Z,99124.37
2022-11-23T17:43:56.174Z,99121.94
2022-11-23T17:47:05.452Z,99119.28
2022-11-23T17:50:19.241Z,99122.13
2022-11-23T17:53:34.279Z,99125.34
2022-11-23T17:56:50.239Z,99131.94
2022-11-23T18:00:03.326Z,99131.16
2022-11-23T18:03:12.481Z,99135.88
2022-11-23T18:06:30.179Z,99131.66
2022-11-23T18:09:40.179Z,99133.81
2022-11-23T18:12:48.833Z,99139.91
2022-11-23T18:16:04.377Z,99136.47
2022-11-23T18:19:13.175Z,99138.84
2022-11-23T18:22:28.262Z,99140.19
2022-11-23T18:25:36.708Z,99145.22
2022-11-23T18:28:45.766Z,99139.13
2022-11-23T18:32:01.222Z,99139.13
2022-11-23T18:35:10.381Z,99141.78
2022-11-23T18:38:19.263Z,99133.53
2022-11-23T18:41:28.101Z,99138.53
2022-11-23T18:44:43.171Z,99136.19
2022-11-23T18:47:58.273Z,99147.03
2022-11-23T18:51:13.285Z,99140.16
2022-11-23T18:54:29.241Z,99140.69
2022-11-23T18:57:38.390Z,99152.12
2022-11-23T19:00:47.385Z,99147.63
2022-11-23T19:04:02.266Z,99143.88
2022-11-23T19:07:05.088Z,99144.38
2022-11-23T19:10:20.289Z,99147.03
2022-11-23T19:13:29.459Z,99149.19
2022-11-23T19:16:45.188Z,99153.94
2022-11-23T19:19:47.660Z,99150.78
2022-11-23T19:23:03.249Z,99151.84
2022-11-23T19:26:05.963Z,99157.44
2022-11-23T19:29:34.713Z,99152.41
2022-11-23T19:32:44.237Z,99159.88
2022-11-23T19:35:59.255Z,99171.03
2022-11-23T19:39:07.623Z,99165.72
2022-11-23T19:42:22.825Z,99163.66
2022-11-23T19:45:38.304Z,99165.25
2022-11-23T19:48:52.825Z,99167.41
2022-11-23T19:52:08.242Z,99170.56
2022-11-23T19:55:16.910Z,99171.88
2022-11-23T19:58:32.282Z,99176.38
2022-11-23T20:01:42.091Z,99175.38
2022-11-23T20:04:58.291Z,99175.88
2022-11-23T20:08:09.220Z,99180.63
2022-11-23T20:11:24.233Z,99182.22
2022-11-23T20:14:26.762Z,99176.91
2022-11-23T20:17:41.846Z,99182.44
2022-11-23T20:20:52.296Z,99181.16
2022-11-23T20:24:05.149Z,99188.88
2022-11-23T20:27:14.256Z,99192.84
2022-11-23T20:30:29.123Z,99192.84
2022-11-23T20:33:37.825Z,99194.44
2022-11-23T20:36:53.187Z,99196.56
2022-11-23T20:39:55.874Z,99202.69
2022-11-23T20:43:11.272Z,99203.47
2022-11-23T20:46:38.281Z,99205.28
2022-11-23T20:49:48.271Z,99209.56
2022-11-23T20:53:10.258Z,99218.28
2022-11-23T20:56:27.466Z,99214.56
2022-11-23T20:59:35.833Z,99219.09
2022-11-23T21:02:44.533Z,99225.44
2022-11-23T21:05:53.154Z,99226.56
2022-11-23T21:09:01.750Z,99231.37
2022-11-23T21:12:16.830Z,99230.59
2022-11-23T21:15:32.382Z,99235.91
2022-11-23T21:18:40.866Z,99222.91
2022-11-23T21:21:56.885Z,99233.78
2022-11-23T21:25:05.869Z,99232.50
2022-11-23T21:28:14.423Z,99234.34
2022-11-23T21:31:28.840Z,99234.06
2022-11-23T21:34:44.113Z,99238.31
2022-11-23T21:37:58.836Z,99243.34
2022-11-23T21:41:19.838Z,99244.94
2022-11-23T21:44:34.975Z,99249.72
2022-11-23T21:47:43.613Z,99245.19
2022-11-23T21:50:51.812Z,99247.59
2022-11-23T21:54:09.864Z,99255.56
2022-11-23T21:57:24.889Z,99253.97
2022-11-23T22:00:39.875Z,99254.25
2022-11-23T22:03:55.549Z,99251.09
2022-11-23T22:07:03.887Z,99254.25
2022-11-23T22:10:18.853Z,99256.41
2022-11-23T22:13:26.846Z,99258.78
2022-11-23T22:16:50.913Z,99259.84
2022-11-23T22:19:59.490Z,99262.50
2022-11-23T22:23:07.846Z,99259.84
2022-11-23T22:26:18.243Z,99258.28
2022-11-23T22:29:27.880Z,99260.13
2022-11-23T22:32:42.839Z,99260.94
2022-11-23T22:35:44.742Z,99259.06
2022-11-23T22:39:02.387Z,99264.13
2022-11-23T22:42:10.836Z,99265.25
2022-11-23T22:45:25.888Z,99274.03
2022-11-23T22:48:44.852Z,99266.84
2022-11-23T22:51:53.840Z,99274.28
2022-11-23T22:55:02.613Z,99274.88
2022-11-23T22:58:10.832Z,99270.56
2022-11-23T23:01:21.760Z,99274.56
2022-11-23T23:04:31.031Z,99282.56
2022-11-23T23:07:39.624Z,99283.84
2022-11-23T23:10:47.842Z,99280.94
2022-11-23T23:14:03.847Z,99291.03
2022-11-23T23:17:05.861Z,99286.50
2022-11-23T23:20:22.872Z,99296.88
2022-11-23T23:23:25.448Z,99300.87
2022-11-23T23:26:39.854Z,99301.94
2022-11-23T23:29:54.824Z,99300.34
2022-11-23T23:33:03.466Z,99298.75
2022-11-23T23:36:16.844Z,99301.66
2022-11-23T23:39:25.542Z,99306.72
2022-11-23T23:42:33.834Z,99312.84
2022-11-23T23:45:48.917Z,99309.91
2022-11-23T23:48:50.879Z,99312.28
2022-11-23T23:52:05.865Z,99309.41
2022-11-23T23:55:08.424Z,99314.16
2022-11-23T23:58:22.858Z,99318.16
